Time;durP1;ratioP1;P1;durP2;ratioP2;P2;SDS_P1;SDS_P2;PMS_P1;PMS_P2;Temp;Humidity;BMP_temperature;BMP_pressure;BME280_temperature;BME280_humidity;BME280_pressure;Samples;Min_cycle;Max_cycle;Signal;HPM_P1;HPM_P2
2021/08/19 00:00:48;;;;;;;28.58;21.05;;;;;;;19.27;86.71;99364.59;5011191;28;20049;-79
2021/08/19 00:03:14;;;;;;;28.85;18.52;;;;;;;19.22;86.68;99359.56;5013500;28;20052;-76
2021/08/19 00:05:39;;;;;;;26.55;18.77;;;;;;;19.12;86.99;99337.22;5021321;28;20049;-79
2021/08/19 00:08:05;;;;;;;25.77;18.58;;;;;;;19.25;86.70;99355.91;5031222;28;20129;-79
2021/08/19 00:10:31;;;;;;;25.20;18.38;;;;;;;19.34;86.82;99379.19;5025526;28;20034;-76
2021/08/19 00:12:58;;;;;;;24.60;16.90;;;;;;;19.36;86.76;99371.19;5015841;28;20056;-79
2021/08/19 00:15:24;;;;;;;22.50;16.95;;;;;;;19.30;86.78;99367.09;5011639;28;20053;-77
2021/08/19 00:17:50;;;;;;;24.80;16.85;;;;;;;19.37;86.90;99375.53;5010618;28;20045;-78
2021/08/19 00:20:16;;;;;;;20.85;16.73;;;;;;;19.37;86.71;99383.44;5011113;28;20046;-80
2021/08/19 00:22:41;;;;;;;19.90;16.88;;;;;;;19.27;86.26;99378.66;4994717;28;20141;-75
2021/08/19 00:25:08;;;;;;;26.38;16.63;;;;;;;19.23;86.42;99392.94;5013179;28;20041;-77
2021/08/19 00:27:34;;;;;;;23.52;17.20;;;;;;;19.24;86.34;99407.81;5019814;28;20095;-77
2021/08/19 00:29:59;;;;;;;24.85;18.33;;;;;;;19.16;86.67;99403.88;5025919;28;20042;-77
2021/08/19 00:32:25;;;;;;;27.25;18.38;;;;;;;19.23;86.73;99411.38;5022039;28;20050;-75
2021/08/19 00:34:51;;;;;;;26.15;19.50;;;;;;;19.24;86.73;99409.59;5012436;28;20513;-78
2021/08/19 00:37:16;;;;;;;31.65;20.10;;;;;;;19.14;86.73;99385.47;5010930;28;20038;-77
2021/08/19 00:39:44;;;;;;;28.52;19.58;;;;;;;19.10;86.93;99381.28;4995674;28;20037;-77
2021/08/19 00:42:10;;;;;;;24.63;19.10;;;;;;;19.12;86.83;99384.69;5012679;28;20394;-77
2021/08/19 00:44:40;;;;;;;27.67;20.40;;;;;;;19.19;86.63;99385.25;5011916;28;20038;-77
2021/08/19 00:47:09;;;;;;;27.73;18.98;;;;;;;19.05;86.46;99352.53;5011147;28;20042;-76
2021/08/19 00:49:40;;;;;;;27.30;19.83;;;;;;;19.11;86.66;99361.91;5012194;28;20478;-76
2021/08/19 00:52:06;;;;;;;23.55;18.92;;;;;;;19.10;86.89;99355.78;4994198;28;20132;-78
2021/08/19 00:54:34;;;;;;;24.48;18.00;;;;;;;19.19;86.89;99374.72;5015735;28;20481;-76
2021/08/19 00:57:03;;;;;;;25.48;19.33;;;;;;;19.19;86.82;99383.47;5015819;28;20041;-77
2021/08/19 00:59:36;;;;;;;25.67;18.83;;;;;;;19.13;87.01;99365.31;5015351;28;20056;-77
2021/08/19 01:02:03;;;;;;;24.80;18.27;;;;;;;19.17;86.79;99366.88;4998057;28;20037;-76
2021/08/19 01:04:42;;;;;;;26.67;18.92;;;;;;;19.13;86.53;99367.94;5015386;28;20417;-77
2021/08/19 01:07:11;;;;;;;27.50;19.30;;;;;;;19.07;86.51;99360.38;5014543;28;20092;-77
2021/08/19 01:09:38;;;;;;;25.50;19.77;;;;;;;18.99;86.62;99350.19;5017228;28;20046;-76
2021/08/19 01:12:08;;;;;;;27.13;18.92;;;;;;;19.09;86.86;99366.38;5017896;28;20036;-76
2021/08/19 01:14:33;;;;;;;26.27;18.20;;;;;;;19.18;86.84;99373.84;5013938;28;20037;-77
2021/08/19 01:17:08;;;;;;;24.58;18.88;;;;;;;19.21;86.71;99375.47;5015069;28;20068;-79
2021/08/19 01:19:35;;;;;;;25.45;17.45;;;;;;;19.10;86.62;99347.88;5013674;28;20046;-78
2021/08/19 01:22:00;;;;;;;24.50;17.95;;;;;;;19.20;86.38;99364.06;5013131;28;20125;-76
2021/08/19 01:24:27;;;;;;;26.23;18.90;;;;;;;19.16;86.59;99353.78;4997138;28;20141;-76
2021/08/19 01:26:53;;;;;;;23.35;17.70;;;;;;;19.16;86.65;99348.50;5014542;28;20030;-77
2021/08/19 01:29:19;;;;;;;29.65;19.48;;;;;;;19.18;86.80;99350.13;5014990;28;20042;-78
2021/08/19 01:32:09;;;;;;;25.25;18.80;;;;;;;19.24;86.61;99364.75;4997439;28;20470;-75
2021/08/19 01:34:34;;;;;;;23.08;18.00;;;;;;;19.26;86.50;99371.69;5015175;28;20483;-77
2021/08/19 01:37:00;;;;;;;25.00;18.10;;;;;;;19.24;86.62;99368.25;5014629;28;20084;-76
2021/08/19 01:39:26;;;;;;;26.45;19.13;;;;;;;19.16;86.68;99359.03;4997354;28;20042;-78
2021/08/19 01:41:52;;;;;;;61.88;47.35;;;;;;;19.22;86.67;99367.47;5014873;28;20515;-78
2021/08/19 01:44:18;;;;;;;58.03;47.08;;;;;;;19.21;86.54;99363.13;5013722;28;20077;-75
2021/08/19 01:46:52;;;;;;;42.75;30.67;;;;;;;19.20;86.31;99363.22;5012927;28;20041;-76
2021/08/19 01:49:18;;;;;;;34.22;25.58;;;;;;;19.11;86.78;99354.84;5014857;28;20052;-77
2021/08/19 01:51:43;;;;;;;29.42;22.50;;;;;;;19.22;86.48;99374.53;5013184;28;20034;-77
2021/08/19 01:54:09;;;;;;;30.02;20.48;;;;;;;19.18;86.49;99358.03;5016783;28;20137;-76
2021/08/19 01:56:35;;;;;;;28.00;21.25;;;;;;;19.22;86.34;99367.47;5016443;28;20049;-77
2021/08/19 01:59:00;;;;;;;28.70;19.67;;;;;;;19.19;86.13;99365.00;5019315;28;20060;-76
2021/08/19 02:01:26;;;;;;;27.08;19.70;;;;;;;19.07;86.32;99345.38;5025614;28;20042;-76
2021/08/19 02:03:53;;;;;;;26.50;19.88;;;;;;;19.14;86.50;99363.53;5020149;28;20107;-76
2021/08/19 02:06:20;;;;;;;36.55;28.73;;;;;;;19.18;86.26;99371.19;5008431;28;20033;-75
2021/08/19 02:08:46;;;;;;;88.10;72.13;;;;;;;19.14;86.17;99355.63;5015826;28;20041;-75
2021/08/19 02:11:12;;;;;;;133.98;110.38;;;;;;;19.23;86.30;99370.97;5014928;28;20111;-77
2021/08/19 02:13:39;;;;;;;82.47;66.57;;;;;;;19.21;86.12;99363.13;5016354;28;20033;-76
2021/08/19 02:16:05;;;;;;;66.50;50.75;;;;;;;19.24;86.15;99368.25;5014357;28;20050;-78
2021/08/19 02:18:31;;;;;;;51.15;39.55;;;;;;;19.27;86.30;99373.38;5029050;28;20069;-77
2021/08/19 02:20:57;;;;;;;35.80;25.30;;;;;;;19.26;86.13;99382.22;5013737;28;20478;-77
2021/08/19 02:23:23;;;;;;;29.33;21.35;;;;;;;19.20;86.08;99376.41;4995832;28;20132;-77
2021/08/19 02:25:49;;;;;;;28.58;19.58;;;;;;;19.13;85.89;99378.50;4996824;28;20141;-75
2021/08/19 02:28:16;;;;;;;26.35;18.95;;;;;;;19.12;85.82;99387.34;5012099;28;20042;-77
2021/08/19 02:30:43;;;;;;;30.98;20.17;;;;;;;19.07;85.69;99398.13;5028591;28;20587;-76
2021/08/19 02:33:08;;;;;;;28.90;20.42;;;;;;;19.02;85.86;99401.94;5013111;28;20057;-77
2021/08/19 02:35:34;;;;;;;28.38;19.65;;;;;;;19.00;86.11;99401.16;5030302;28;20042;-74
2021/08/19 02:38:01;;;;;;;27.08;19.33;;;;;;;19.01;85.96;99406.34;5032389;28;20063;-76
2021/08/19 02:40:30;;;;;;;30.25;19.98;;;;;;;18.99;85.70;99400.28;5031001;28;20133;-77
2021/08/19 02:42:56;;;;;;;27.92;18.48;;;;;;;18.96;86.10;99398.66;5014016;28;20105;-78
2021/08/19 02:45:22;;;;;;;22.75;17.60;;;;;;;19.05;85.62;99412.31;5012783;28;20048;-79
2021/08/19 02:47:48;;;;;;;25.17;17.80;;;;;;;19.04;86.15;99405.34;5012246;28;20091;-78
2021/08/19 02:50:14;;;;;;;23.63;17.13;;;;;;;19.01;85.98;99398.41;5013198;28;20049;-77
2021/08/19 02:52:43;;;;;;;27.27;17.02;;;;;;;19.07;86.27;99402.56;5013261;28;20128;-77
2021/08/19 02:55:10;;;;;;;21.33;17.27;;;;;;;19.10;85.99;99403.25;4995972;28;20549;-76
2021/08/19 02:57:36;;;;;;;22.88;16.65;;;;;;;19.03;86.00;99393.94;5012465;28;20034;-77
2021/08/19 03:00:04;;;;;;;23.83;16.85;;;;;;;19.08;85.86;99393.72;5012223;28;20122;-75
2021/08/19 03:02:31;;;;;;;25.23;17.05;;;;;;;19.03;85.92;99374.63;5015560;28;20041;-78
2021/08/19 03:04:57;;;;;;;22.67;17.02;;;;;;;19.23;85.83;99400.84;5013061;28;20037;-76
2021/08/19 03:07:23;;;;;;;21.27;16.42;;;;;;;19.16;85.84;99385.41;4996362;28;20113;-75
2021/08/19 03:09:49;;;;;;;23.10;15.93;;;;;;;19.24;85.61;99401.69;5012624;28;20567;-75
2021/08/19 03:12:15;;;;;;;27.30;17.60;;;;;;;19.19;85.65;99379.97;4979912;28;20044;-79
2021/08/19 03:14:41;;;;;;;23.58;16.65;;;;;;;19.16;85.57;99386.25;5011501;28;20132;-77
2021/08/19 03:17:12;;;;;;;24.75;16.58;;;;;;;19.16;85.49;99380.97;5012759;28;20092;-77
2021/08/19 03:19:38;;;;;;;;;;;;;;;19.24;85.55;99384.09;4995526;28;20038;-76
2021/08/19 03:22:04;;;;;;;26.42;16.83;;;;;;;19.26;85.59;99382.22;5012827;28;19917;-76
2021/08/19 03:24:31;;;;;;;19.90;15.90;;;;;;;19.27;85.56;99369.88;5012612;28;20131;-76
2021/08/19 03:26:57;;;;;;;19.67;15.60;;;;;;;19.27;85.36;99362.84;4995726;28;20409;-76
2021/08/19 03:29:24;;;;;;;21.58;15.10;;;;;;;19.31;85.29;99370.59;5011791;28;20084;-77
2021/08/19 03:31:50;;;;;;;25.30;16.27;;;;;;;19.35;85.46;99378.25;5011871;28;20104;-78
2021/08/19 03:34:16;;;;;;;22.38;16.73;;;;;;;19.36;85.34;99377.31;5013572;28;20115;-79
2021/08/19 03:36:42;;;;;;;20.33;15.95;;;;;;;19.16;85.26;99336.16;5013498;28;20073;-77
2021/08/19 03:39:07;;;;;;;21.60;15.80;;;;;;;19.38;85.22;99370.19;5013702;28;20377;-78
2021/08/19 03:41:34;;;;;;;22.85;16.20;;;;;;;19.48;85.24;99375.81;5012641;28;20034;-79
2021/08/19 03:44:01;;;;;;;22.02;16.20;;;;;;;19.59;84.98;99371.75;5013664;28;20137;-78
2021/08/19 03:46:27;;;;;;;23.75;15.88;;;;;;;19.70;85.00;99372.06;5013200;28;20057;-78
2021/08/19 03:48:52;;;;;;;23.38;15.95;;;;;;;19.70;84.95;99364.97;5013148;28;20518;-75
2021/08/19 03:51:18;;;;;;;26.90;15.10;;;;;;;19.89;84.99;99381.63;4995625;28;20041;-78
2021/08/19 03:53:49;;;;;;;23.50;16.13;;;;;;;19.94;84.85;99382.25;5019620;28;20494;-79
2021/08/19 03:56:14;;;;;;;19.52;15.57;;;;;;;19.96;84.49;99388.31;5030770;28;20060;-78
2021/08/19 03:58:40;;;;;;;20.73;15.90;;;;;;;19.97;84.56;99376.81;5030050;28;20109;-76
2021/08/19 04:01:06;;;;;;;22.42;15.73;;;;;;;20.08;84.28;99382.34;5004493;28;20046;-78
2021/08/19 04:03:32;;;;;;;23.55;16.25;;;;;;;20.20;84.29;99372.88;5011917;28;20120;-79
2021/08/19 04:05:57;;;;;;;26.35;17.35;;;;;;;20.36;84.42;99375.53;5010893;28;20096;-77
2021/08/19 04:08:23;;;;;;;18.92;15.23;;;;;;;20.51;84.48;99371.16;5012550;28;20080;-77
2021/08/19 04:10:49;;;;;;;21.52;14.48;;;;;;;20.66;84.40;99358.00;4994889;28;20053;-77
2021/08/19 04:13:15;;;;;;;21.33;13.98;;;;;;;20.81;83.83;99364.22;5012001;28;20494;-78
2021/08/19 04:15:40;;;;;;;20.33;14.13;;;;;;;20.87;83.26;99364.72;5012040;28;20398;-80
2021/08/19 04:18:06;;;;;;;26.30;15.13;;;;;;;20.94;83.05;99373.13;5011456;28;20048;-77
2021/08/19 04:20:33;;;;;;;19.63;14.27;;;;;;;20.94;83.11;99374.94;5012653;28;20041;-78
2021/08/19 04:22:58;;;;;;;21.65;14.63;;;;;;;20.91;82.87;99365.38;5012060;28;20096;-78
2021/08/19 04:25:24;;;;;;;15.48;13.75;;;;;;;21.03;82.66;99382.31;5010833;28;20041;-78
2021/08/19 04:27:50;;;;;;;18.65;14.98;;;;;;;21.04;82.54;99378.72;5010215;28;20045;-78
2021/08/19 04:30:15;;;;;;;16.52;13.98;;;;;;;21.01;82.50;99385.06;5012186;28;20493;-79
2021/08/19 04:32:41;;;;;;;20.20;15.23;;;;;;;20.95;82.40;99376.66;5012930;28;20052;-77
2021/08/19 04:35:07;;;;;;;16.23;13.98;;;;;;;20.97;82.03;99385.31;5012013;28;20042;-80
2021/08/19 04:37:34;;;;;;;20.58;14.18;;;;;;;20.90;81.97;99385.69;5011308;28;20132;-78
2021/08/19 04:40:01;;;;;;;19.83;13.93;;;;;;;20.78;81.92;99391.69;5015618;28;20052;-77
2021/08/19 04:42:27;;;;;;;25.98;14.68;;;;;;;20.77;81.62;99388.19;5032794;28;20037;-77
2021/08/19 04:44:53;;;;;;;18.38;14.20;;;;;;;20.78;81.37;99383.75;5016437;28;20045;-77
2021/08/19 04:47:18;;;;;;;20.10;13.95;;;;;;;20.70;81.20;99370.09;5012786;28;20091;-76
2021/08/19 04:49:44;;;;;;;21.45;14.80;;;;;;;20.80;81.06;99386.31;5012478;28;20041;-77
2021/08/19 04:52:10;;;;;;;21.55;15.10;;;;;;;20.85;81.35;99384.25;5011443;28;20099;-78
2021/08/19 04:54:35;;;;;;;20.05;14.40;;;;;;;20.88;81.38;99382.28;5011529;28;20431;-76
2021/08/19 04:57:01;;;;;;;21.80;14.18;;;;;;;20.93;81.21;99376.72;5011675;28;20092;-77
2021/08/19 04:59:27;;;;;;;21.98;14.48;;;;;;;21.01;81.41;99371.84;5012006;28;20041;-78
2021/08/19 05:01:52;;;;;;;16.55;12.55;;;;;;;21.26;80.86;99388.03;5011176;28;20041;-78
2021/08/19 05:04:18;;;;;;;18.77;12.95;;;;;;;21.36;80.57;99383.91;5011646;28;20053;-77
2021/08/19 05:06:44;;;;;;;17.42;12.77;;;;;;;21.47;80.88;99370.84;5011399;28;20048;-77
2021/08/19 05:09:10;;;;;;;16.42;13.25;;;;;;;21.62;80.12;99360.31;5012151;28;20394;-77
2021/08/19 05:11:36;;;;;;;17.25;12.73;;;;;;;21.95;80.16;99369.72;5011941;28;20080;-79
2021/08/19 05:14:03;;;;;;;18.90;11.68;;;;;;;22.42;80.02;99373.81;5010436;28;20085;-77
2021/08/19 05:16:31;;;;;;;17.52;11.18;;;;;;;22.93;79.82;99368.75;5010441;28;20058;-76
2021/08/19 05:18:59;;;;;;;15.55;11.85;;;;;;;23.29;78.97;99376.06;4995256;28;20065;-75
2021/08/19 05:21:26;;;;;;;16.27;11.48;;;;;;;23.68;78.27;99376.06;5010978;28;20048;-76
2021/08/19 05:23:58;;;;;;;20.20;13.68;;;;;;;24.00;77.14;99372.94;5010014;28;20502;-76
2021/08/19 05:26:24;;;;;;;20.83;13.07;;;;;;;24.71;77.10;99371.41;5011776;28;20052;-77
2021/08/19 05:28:50;;;;;;;16.92;11.85;;;;;;;25.85;75.86;99373.31;5011287;28;20140;-79
2021/08/19 05:31:16;;;;;;;14.88;11.02;;;;;;;27.17;73.84;99359.94;5010627;28;20045;-77
2021/08/19 05:33:45;;;;;;;15.82;10.60;;;;;;;28.13;70.74;99333.91;5012000;28;20485;-78
2021/08/19 05:36:15;;;;;;;14.10;10.45;;;;;;;28.85;68.10;99351.41;5011265;28;20421;-79
2021/08/19 05:38:41;;;;;;;16.93;10.63;;;;;;;29.82;65.94;99339.72;5012820;28;20030;-76
2021/08/19 05:41:08;;;;;;;13.05;10.18;;;;;;;30.70;63.12;99338.31;5015441;28;20280;-78
2021/08/19 05:43:34;;;;;;;16.27;10.68;;;;;;;31.61;61.39;99357.75;5014048;28;20037;-76
2021/08/19 05:46:02;;;;;;;14.90;9.93;;;;;;;32.09;57.84;99340.13;4998068;28;20030;-78
2021/08/19 05:48:28;;;;;;;10.98;9.77;;;;;;;32.61;56.00;99330.09;5001518;28;20046;-77
2021/08/19 05:50:54;;;;;;;15.82;9.52;;;;;;;33.50;54.87;99334.72;5033212;28;20046;-79
2021/08/19 05:53:19;;;;;;;15.80;11.00;;;;;;;34.44;51.65;99311.47;5016893;28;20118;-76
2021/08/19 05:55:45;;;;;;;14.05;10.43;;;;;;;34.89;49.27;99323.22;5027302;28;20050;-79
2021/08/19 05:58:14;;;;;;;15.82;9.57;;;;;;;34.55;47.37;99313.75;5015486;28;20038;-76
2021/08/19 06:00:50;;;;;;;10.90;9.45;;;;;;;34.52;47.68;99333.88;5014898;28;20109;-77
2021/08/19 06:03:17;;;;;;;12.75;9.45;;;;;;;35.53;46.74;99337.31;5015476;28;20037;-78
2021/08/19 06:05:44;;;;;;;14.25;10.20;;;;;;;35.50;45.29;99348.50;5014550;28;20057;-78
2021/08/19 06:08:12;;;;;;;12.65;9.10;;;;;;;34.91;44.83;99317.66;4997134;28;20358;-79
2021/08/19 06:10:39;;;;;;;17.92;10.10;;;;;;;35.10;45.04;99344.19;5014902;28;20050;-78
2021/08/19 06:13:19;;;;;;;14.63;9.02;;;;;;;35.94;44.05;99353.00;4981884;28;20140;-77
2021/08/19 06:15:51;;;;;;;11.93;9.50;;;;;;;35.78;42.93;99334.31;5015959;28;20053;-77
2021/08/19 06:18:20;;;;;;;17.45;9.52;;;;;;;35.02;43.50;99332.63;5018237;28;20048;-78
2021/08/19 06:20:49;;;;;;;13.23;9.15;;;;;;;34.12;43.87;99270.22;5021348;28;20181;-78
2021/08/19 06:23:15;;;;;;;12.10;9.18;;;;;;;34.12;44.04;99349.28;5015099;28;20049;-77
2021/08/19 06:25:53;;;;;;;10.68;8.73;;;;;;;34.27;44.57;99357.47;4998144;28;20060;-80
2021/08/19 06:28:24;;;;;;;9.80;8.07;;;;;;;35.59;42.90;99356.31;4998446;28;20057;-78
2021/08/19 06:30:53;;;;;;;11.10;8.02;;;;;;;36.00;40.99;99287.34;5014308;28;20041;-77
2021/08/19 06:33:32;;;;;;;8.95;8.00;;;;;;;36.36;39.55;99290.16;5014296;28;20498;-78
2021/08/19 06:35:58;;;;;;;8.35;7.55;;;;;;;36.23;39.46;99342.31;5011975;28;20531;-78
2021/08/19 06:38:27;;;;;;;12.93;8.98;;;;;;;34.62;39.51;99231.00;4995896;28;20053;-80
2021/08/19 06:40:53;;;;;;;13.85;9.30;;;;;;;34.33;40.53;99334.31;5013003;28;20045;-77
2021/08/19 06:43:19;;;;;;;9.23;8.02;;;;;;;33.65;41.53;99342.94;5012063;28;20552;-78
2021/08/19 06:45:51;;;;;;;9.05;8.20;;;;;;;33.04;42.34;99352.31;5013830;28;20037;-77
2021/08/19 06:48:19;;;;;;;10.20;9.13;;;;;;;32.36;43.40;99346.25;5001013;28;20091;-79
2021/08/19 06:50:58;;;;;;;11.30;8.70;;;;;;;31.85;44.23;99336.34;4998766;28;20046;-80
2021/08/19 06:53:30;;;;;;;13.10;9.95;;;;;;;30.62;45.34;99237.09;4998686;28;20104;-78
2021/08/19 06:55:59;;;;;;;15.90;10.65;;;;;;;30.44;46.04;99309.56;5013315;28;20096;-77
2021/08/19 06:58:25;;;;;;;12.10;10.45;;;;;;;30.58;47.23;99368.06;4995441;28;20047;-81
2021/08/19 07:00:51;;;;;;;12.88;10.40;;;;;;;30.52;46.92;99376.72;5011138;28;20507;-78
2021/08/19 07:03:17;;;;;;;19.70;11.75;;;;;;;30.25;47.55;99385.66;5012871;28;20540;-78
2021/08/19 07:05:43;;;;;;;15.35;10.55;;;;;;;29.84;47.98;99368.06;5011203;28;20141;-79
2021/08/19 07:08:10;;;;;;;13.15;10.82;;;;;;;29.69;48.65;99375.75;5012628;28;20129;-78
2021/08/19 07:10:36;;;;;;;16.95;11.77;;;;;;;29.64;48.90;99395.94;5010466;28;20231;-76
2021/08/19 07:13:06;;;;;;;14.18;11.15;;;;;;;29.56;49.22;99388.66;5012225;28;20034;-77
2021/08/19 07:15:32;;;;;;;14.88;10.40;;;;;;;29.72;49.64;99342.47;5013062;28;20438;-80
2021/08/19 07:17:57;;;;;;;14.52;10.10;;;;;;;30.90;48.37;99388.16;5012339;28;20046;-79
2021/08/19 07:20:23;;;;;;;15.38;10.30;;;;;;;30.84;47.01;99377.19;4994560;28;20046;-77
2021/08/19 07:22:52;;;;;;;22.25;11.65;;;;;;;30.56;47.47;99367.41;5011825;28;20053;-78
2021/08/19 07:25:21;;;;;;;16.98;11.13;;;;;;;30.18;48.32;99323.72;5012555;28;20045;-77
2021/08/19 07:27:53;;;;;;;13.43;11.25;;;;;;;30.48;48.16;99325.19;5025408;28;20046;-79
2021/08/19 07:30:19;;;;;;;16.23;10.95;;;;;;;30.92;47.12;99321.72;4994337;28;20038;-77
2021/08/19 07:32:48;;;;;;;13.95;10.73;;;;;;;31.49;46.99;99358.00;4978793;28;20042;-77
2021/08/19 07:35:16;;;;;;;15.45;10.30;;;;;;;31.87;46.39;99375.69;4982170;28;20046;-76
2021/08/19 07:37:48;;;;;;;12.23;9.45;;;;;;;31.97;45.93;99339.59;5000806;28;20042;-78
2021/08/19 07:40:18;;;;;;;13.65;9.15;;;;;;;32.78;44.56;99332.78;4983579;28;20149;-77
2021/08/19 07:42:44;;;;;;;18.87;14.13;;;;;;;33.90;43.27;99345.53;5000181;28;20489;-78
2021/08/19 07:45:12;;;;;;;10.93;7.90;;;;;;;36.17;41.71;99342.06;5002259;28;20045;-75
2021/08/19 07:47:41;;;;;;;11.45;8.50;;;;;;;38.01;38.15;99337.75;5030235;28;20049;-79
2021/08/19 07:50:14;;;;;;;8.93;7.18;;;;;;;39.03;36.07;99294.19;5022287;28;20081;-79
2021/08/19 07:52:41;;;;;;;12.60;7.75;;;;;;;40.17;34.87;99355.50;5019912;28;20065;-80
2021/08/19 07:55:12;;;;;;;8.50;6.97;;;;;;;40.77;33.10;99307.97;5020222;28;20589;-77
2021/08/19 07:58:03;;;;;;;8.23;7.28;;;;;;;40.93;32.06;99254.75;4986128;28;20029;-78
2021/08/19 08:00:39;;;;;;;12.98;7.35;;;;;;;41.46;31.28;99312.47;4986587;28;20055;-79
2021/08/19 08:03:05;;;;;;;9.18;6.68;;;;;;;42.13;30.20;99352.59;5004387;28;20111;-81
2021/08/19 08:05:43;;;;;;;10.10;8.03;;;;;;;43.07;29.43;99345.66;5010995;28;20060;-80
2021/08/19 08:08:11;;;;;;;10.80;8.65;;;;;;;43.43;27.69;99310.06;5021322;28;20048;-79
2021/08/19 08:10:41;;;;;;;15.50;8.20;;;;;;;43.00;27.58;99329.38;5023365;28;20488;-77
2021/08/19 08:13:12;;;;;;;10.48;7.97;;;;;;;42.49;27.19;99284.41;5024734;28;20048;-79
2021/08/19 08:15:48;;;;;;;12.15;8.45;;;;;;;41.79;26.97;99243.81;5010655;28;20065;-78
2021/08/19 08:18:23;;;;;;;10.80;8.05;;;;;;;42.27;27.10;99283.03;5010871;28;20045;-79
2021/08/19 08:20:49;;;;;;;8.82;7.15;;;;;;;42.57;26.15;99342.28;5027492;28;20080;-79
2021/08/19 08:23:19;;;;;;;11.13;7.45;;;;;;;42.32;26.21;99344.34;5026899;28;20050;-76
2021/08/19 08:25:50;;;;;;;9.68;7.30;;;;;;;40.99;26.69;99267.44;5008961;28;20119;-80
2021/08/19 08:28:20;;;;;;;10.55;7.20;;;;;;;40.96;27.03;99290.56;4993456;28;20048;-78
2021/08/19 08:30:51;;;;;;;9.75;7.95;;;;;;;40.81;26.98;99312.72;5041423;28;20160;-77
2021/08/19 08:33:23;;;;;;;8.30;7.50;;;;;;;40.09;27.93;99342.16;5007634;28;20046;-78
2021/08/19 08:35:51;;;;;;;8.88;7.78;;;;;;;38.74;28.63;99260.94;5037153;28;20038;-79
2021/08/19 08:38:19;;;;;;;9.45;7.82;;;;;;;37.88;29.59;99308.66;5021515;28;20046;-78
2021/08/19 08:40:51;;;;;;;9.05;7.75;;;;;;;36.97;31.18;99316.75;5020118;28;20062;-79
2021/08/19 08:43:28;;;;;;;10.90;7.93;;;;;;;36.18;31.83;99307.72;5013794;28;20509;-79
2021/08/19 08:45:57;;;;;;;10.85;8.32;;;;;;;35.10;33.08;99221.72;5012860;28;20056;-79
2021/08/19 08:48:32;;;;;;;9.75;7.68;;;;;;;35.66;33.53;99342.88;5013078;28;20100;-77
2021/08/19 08:51:06;;;;;;;11.38;7.40;;;;;;;35.63;33.35;99337.03;5027613;28;20046;-77
2021/08/19 08:53:40;;;;;;;9.52;7.72;;;;;;;35.68;33.82;99326.50;5013008;28;20069;-78
2021/08/19 08:56:05;;;;;;;9.05;8.15;;;;;;;36.34;33.05;99306.63;5011595;28;20417;-79
2021/08/19 08:58:42;;;;;;;8.95;6.90;;;;;;;36.70;32.21;99275.91;5013741;28;20048;-78
2021/08/19 09:01:08;;;;;;;11.48;7.40;;;;;;;36.82;32.23;99257.22;4999323;28;20497;-77
2021/08/19 09:03:40;;;;;;;11.68;7.60;;;;;;;37.63;31.24;99257.66;5011612;28;20042;-78
2021/08/19 09:06:10;;;;;;;9.90;7.50;;;;;;;38.72;30.03;99252.19;4995382;28;20057;-77
2021/08/19 09:08:52;;;;;;;10.00;6.65;;;;;;;40.21;28.69;99296.84;4978817;28;20101;-78
2021/08/19 09:11:19;;;;;;;8.13;6.65;;;;;;;41.62;26.91;99302.88;4977995;28;20069;-80
2021/08/19 09:13:58;;;;;;;9.27;6.65;;;;;;;41.99;26.37;99303.66;5007261;28;20041;-79
2021/08/19 09:16:47;;;;;;;8.55;7.25;;;;;;;40.71;26.65;99284.31;5028966;28;20058;-79
2021/08/19 09:19:21;;;;;;;8.75;7.28;;;;;;;39.75;27.35;99268.84;4998110;28;20038;-78
2021/08/19 09:21:53;;;;;;;8.80;7.50;;;;;;;39.00;27.68;99232.91;5013973;28;20056;-76
2021/08/19 09:24:33;;;;;;;8.85;7.07;;;;;;;38.95;28.29;99275.38;5013930;28;20060;-78
2021/08/19 09:27:37;;;;;;;8.82;7.45;;;;;;;38.97;28.08;99295.03;5014958;28;20579;-76
2021/08/19 09:30:09;;;;;;;9.93;7.22;;;;;;;38.70;28.52;99278.72;4994628;28;21114;-75
2021/08/19 09:32:35;;;;;;;9.00;7.97;;;;;;;38.20;29.06;99252.78;5030375;28;20033;-78
2021/08/19 09:35:12;;;;;;;11.68;7.63;;;;;;;38.26;28.99;99262.81;5013557;28;20575;-78
2021/08/19 09:37:41;;;;;;;9.40;6.78;;;;;;;39.41;28.44;99219.16;4996848;28;20048;-78
2021/08/19 09:40:09;;;;;;;10.75;7.43;;;;;;;41.60;26.46;99278.53;4998450;28;20455;-77
2021/08/19 09:42:40;;;;;;;15.70;7.75;;;;;;;43.09;24.85;99288.81;5015007;28;20083;-78
2021/08/19 09:45:22;;;;;;;;;;;;;;;43.92;24.26;99285.00;5002502;28;20473;-76
2021/08/19 09:47:49;;;;;;;9.30;8.10;;;;;;;44.37;23.85;99255.88;5017335;28;19987;-80
2021/08/19 09:50:24;;;;;;;9.07;8.10;;;;;;;45.14;22.65;99269.91;5017154;28;20100;-79
2021/08/19 09:52:52;;;;;;;10.05;8.20;;;;;;;45.64;21.75;99275.44;5015680;28;20047;-77
2021/08/19 09:55:28;;;;;;;8.95;8.05;;;;;;;45.16;21.53;99281.44;4998255;28;20038;-78
2021/08/19 09:57:56;;;;;;;11.98;8.43;;;;;;;44.69;21.39;99267.09;5014352;28;20141;-78
2021/08/19 10:00:42;;;;;;;10.45;8.85;;;;;;;43.82;22.07;99271.09;4980169;28;20038;-79
2021/08/19 10:03:14;;;;;;;10.48;7.60;;;;;;;42.64;22.88;99278.47;5012979;28;20107;-78
2021/08/19 10:05:40;;;;;;;11.75;8.25;;;;;;;41.25;24.59;99249.16;5013093;28;20044;-77
2021/08/19 10:08:10;;;;;;;9.38;8.20;;;;;;;40.19;25.69;99252.63;4997074;28;20402;-79
2021/08/19 10:10:41;;;;;;;10.98;9.15;;;;;;;39.60;26.26;99282.72;5014317;28;20080;-80
2021/08/19 10:13:15;;;;;;;9.25;8.27;;;;;;;38.48;27.01;99215.66;4997577;28;20117;-80
2021/08/19 10:15:53;;;;;;;9.33;8.33;;;;;;;38.13;27.93;99254.69;4997166;28;20201;-79
2021/08/19 10:18:30;;;;;;;12.80;10.25;;;;;;;37.61;28.62;99260.59;4982042;28;20295;-80
2021/08/19 10:21:15;;;;;;;34.45;30.73;;;;;;;37.22;29.38;99273.75;4996509;28;20034;-77
2021/08/19 10:23:45;;;;;;;33.28;26.20;;;;;;;36.76;30.07;99269.69;4996625;28;20038;-80
2021/08/19 10:26:19;;;;;;;18.25;15.95;;;;;;;36.31;30.55;99234.72;5012569;28;20038;-78
2021/08/19 10:28:53;;;;;;;11.32;8.60;;;;;;;36.35;30.44;99273.09;4980126;28;20118;-80
2021/08/19 10:31:51;;;;;;;20.65;14.60;;;;;;;35.65;31.53;99202.44;5013270;28;20144;-78
2021/08/19 10:34:38;;;;;;;21.42;19.10;;;;;;;35.47;31.34;99214.53;5012740;28;20046;-78
2021/08/19 10:37:04;;;;;;;18.98;15.73;;;;;;;36.07;32.12;99289.28;4994991;28;20041;-78
2021/08/19 10:39:37;;;;;;;17.52;14.43;;;;;;;36.48;30.91;99267.81;5012720;28;20134;-80
2021/08/19 10:42:07;;;;;;;21.63;17.67;;;;;;;36.60;31.12;99265.41;4995068;28;20050;-77
2021/08/19 10:44:49;;;;;;;16.67;14.52;;;;;;;36.51;30.95;99265.75;5011914;28;20045;-79
2021/08/19 10:47:37;;;;;;;13.40;10.13;;;;;;;36.30;31.49;99276.38;5011400;28;20490;-76
2021/08/19 10:50:21;;;;;;;16.48;10.68;;;;;;;36.16;31.84;99282.69;4995220;28;20042;-77
2021/08/19 10:52:50;;;;;;;9.55;8.60;;;;;;;35.85;31.89;99251.34;5012791;28;20033;-77
2021/08/19 10:55:20;;;;;;;10.63;8.80;;;;;;;35.42;32.00;99233.97;4978780;28;20046;-80
2021/08/19 10:57:48;;;;;;;12.70;9.05;;;;;;;35.10;32.59;99214.47;5011316;28;20042;-81
2021/08/19 11:00:15;;;;;;;10.07;8.32;;;;;;;35.28;33.02;99286.19;4994990;28;20050;-78
2021/08/19 11:02:54;;;;;;;12.07;8.10;;;;;;;35.01;33.43;99263.38;5012453;28;20124;-80
2021/08/19 11:05:32;;;;;;;10.50;8.55;;;;;;;35.01;33.46;99291.22;4979385;28;20042;-79
2021/08/19 11:08:04;;;;;;;11.07;9.35;;;;;;;34.74;33.49;99279.16;4977741;28;20581;-77
2021/08/19 11:10:36;;;;;;;11.32;8.60;;;;;;;34.12;33.78;99235.13;4995390;28;20272;-77
2021/08/19 11:13:07;;;;;;;9.57;8.25;;;;;;;33.36;34.80;99161.06;5011568;28;20128;-77
2021/08/19 11:15:37;;;;;;;10.55;8.38;;;;;;;33.44;35.02;99206.03;5011314;28;20053;-78
2021/08/19 11:18:06;;;;;;;12.27;9.40;;;;;;;33.45;35.02;99229.25;5012826;28;20041;-79
2021/08/19 11:20:53;;;;;;;9.80;8.55;;;;;;;33.58;35.62;99280.78;4982155;28;20493;-80
2021/08/19 11:23:35;;;;;;;10.77;8.55;;;;;;;33.13;35.46;99204.13;5011313;28;20527;-80
2021/08/19 11:26:05;;;;;;;10.55;8.10;;;;;;;33.20;35.61;99194.34;4979265;28;20488;-76
2021/08/19 11:28:39;;;;;;;10.27;8.48;;;;;;;33.72;35.38;99278.34;4979010;28;20048;-79
2021/08/19 11:31:19;;;;;;;10.88;8.90;;;;;;;33.48;35.61;99267.50;5011474;28;20073;-78